EST,Max TemperatureF,Mean TemperatureF,Min TemperatureF,Max Dew PointF,MeanDew PointF,Min DewpointF,Max Humidity, Mean Humidity, Min Humidity, Max Sea Level PressureIn, Mean Sea Level PressureIn, Min Sea Level PressureIn, Max VisibilityMiles, Mean VisibilityMiles, Min VisibilityMiles, Max Wind SpeedMPH, Mean Wind SpeedMPH, Max Gust SpeedMPH,PrecipitationIn, CloudCover, Events, WindDirDegrees
2013-12-1,47,41,34,31,27,25,70,60,49,30.23,30.12,29.99,10,10,10,10,5,14,0.00,7,,195
2013-12-2,58,47,36,38,35,31,89,68,47,29.97,29.87,29.79,10,10,10,8,1,12,0.00,6,,179
2013-12-3,57,47,37,45,41,36,92,77,61,29.91,29.85,29.81,10,9,5,9,2,13,0.00,5,,134
2013-12-4,68,55,41,52,47,40,96,76,56,29.94,29.87,29.81,10,10,8,14,5,18,0.00,3,,164
2013-12-5,71,55,39,63,51,37,93,78,63,30.09,29.93,29.85,10,6,1,18,8,28,1.21,6,Rain,280
2013-12-6,39,36,32,37,34,30,100,95,89,30.32,30.14,30.07,10,6,2,13,7,17,1.32,8,Rain-Snow,1
2013-12-7,32,30,27,30,25,20,92,81,69,30.57,30.46,30.30,10,8,2,13,7,18,0.01,8,Snow,357
2013-12-8,33,30,26,34,28,21,100,91,81,30.50,30.24,30.03,10,3,0,12,5,17,0.84,8,Fog-Rain-Snow,51
2013-12-9,37,34,31,36,32,25,100,85,70,30.23,30.10,30.01,10,5,0,13,5,18,0.05,8,Fog-Rain,246
2013-12-10,35,31,27,25,21,15,78,63,47,30.35,30.20,30.09,10,8,1,16,7,24,0.04,6,Snow,288
2013-12-11,41,29,17,22,19,15,92,69,45,30.46,30.39,30.31,10,10,7,15,6,23,T,2,,268
2013-12-12,30,25,19,17,9,2,69,49,28,30.56,30.48,30.38,10,10,10,13,6,18,0.00,3,,275
2013-12-13,43,33,22,25,14,9,65,47,29,30.38,30.30,30.18,10,9,5,13,4,18,0.02,1,Rain,191
2013-12-14,45,39,33,43,37,29,100,91,82,30.19,29.90,29.73,10,7,0,15,5,24,0.29,8,Fog-Rain,151
2013-12-15,40,35,30,36,27,23,92,81,69,30.14,30.00,29.79,10,9,2,17,9,25,T,8,Rain-Snow,268
2013-12-16,39,35,30,30,28,24,92,84,75,30.17,30.11,30.05,10,7,2,10,4,14,0.02,7,Snow,201
2013-12-17,44,39,33,36,32,23,85,77,69,30.19,30.05,29.96,10,10,7,16,7,25,0.01,8,Rain,251
2013-12-18,41,35,28,24,20,16,85,63,40,30.28,30.23,30.15,10,10,10,15,6,22,0.00,2,,223
2013-12-19,60,47,33,26,21,16,52,37,22,30.19,30.12,30.05,10,10,10,20,6,31,0.00,0,,193
2013-12-20,62,55,47,50,37,23,77,55,32,30.05,29.99,29.93,10,10,7,18,9,24,0.01,7,Rain,193
2013-12-21,75,67,58,63,56,51,93,73,53,29.92,29.81,29.63,10,9,2,18,10,40,0.21,7,Rain,185
2013-12-22,71,62,53,48,47,46,80,76,71,30.00,29.98,29.95,10,10,10,30,1,43,0.75,8,Rain,275
2013-12-23,53,43,33,49,36,24,96,80,64,30.35,30.19,29.99,10,9,3,18,6,23,0.07,8,Rain,296
2013-12-24,32,25,17,24,16,8,81,62,42,30.57,30.45,30.32,10,8,0,16,6,23,0.01,5,Fog-Snow,303
2013-12-25,37,26,14,20,14,10,80,58,35,30.52,30.40,30.24,10,10,10,12,3,16,0.00,2,,125
2013-12-26,44,35,26,25,21,15,69,52,34,30.40,30.32,30.22,10,10,10,18,6,26,0.00,4,,234
2013-12-27,50,37,23,24,20,16,81,54,27,30.47,30.40,30.35,10,10,8,9,3,13,0.00,0,,199
2013-12-28,52,40,27,29,22,20,63,48,32,30.35,30.26,30.06,10,10,10,10,4,14,T,1,Rain,180
2013-12-29,44,41,38,40,38,35,100,77,53,30.04,29.88,29.79,10,6,0,15,5,20,0.67,8,Fog-Rain,277
2013-12-30,42,36,30,36,28,21,92,78,63,30.22,30.14,29.98,10,9,2,14,5,21,0.02,8,Rain-Snow,288
2013-12-31,36,30,24,21,19,17,81,64,47,30.39,30.31,30.20,10,10,9,16,6,24,0.00,4,,240